createdAt,value
2019-04-06T00:03:35.739Z,20.30
2019-04-06T00:08:37.614Z,20.30
2019-04-06T00:13:39.488Z,20.20
2019-04-06T00:18:41.263Z,20.20
2019-04-06T00:23:43.036Z,20.20
2019-04-06T00:28:44.911Z,20.10
2019-04-06T00:33:47.095Z,20.10
2019-04-06T00:38:48.971Z,20.10
2019-04-06T00:43:50.741Z,20.10
2019-04-06T00:48:52.623Z,20.00
2019-04-06T00:53:54.390Z,20.00
2019-04-06T00:58:56.133Z,20.00
2019-04-06T01:03:58.040Z,20.00
2019-04-06T01:08:59.813Z,19.90
2019-04-06T01:14:01.633Z,20.00
2019-04-06T01:19:03.768Z,20.00
2019-04-06T01:24:05.655Z,19.90
2019-04-06T01:29:07.422Z,19.90
2019-04-06T01:34:09.293Z,19.90
2019-04-06T01:39:11.066Z,19.90
2019-04-06T01:44:13.044Z,19.90
2019-04-06T01:49:14.818Z,19.90
2019-04-06T01:54:17.717Z,19.90
2019-04-06T01:59:19.591Z,19.90
2019-04-06T02:04:21.366Z,19.90
2019-04-06T02:09:23.139Z,19.80
2019-04-06T02:14:24.907Z,19.80
2019-04-06T02:19:26.678Z,19.80
2019-04-06T02:24:28.867Z,19.80
2019-04-06T02:29:31.764Z,19.80
2019-04-06T02:34:37.942Z,19.80
2019-04-06T02:39:39.851Z,19.80
2019-04-06T02:44:41.573Z,19.80
2019-04-06T02:49:43.382Z,19.80
2019-04-06T02:54:45.155Z,19.80
2019-04-06T02:59:46.914Z,19.70
2019-04-06T03:04:48.733Z,19.70
2019-04-06T03:09:50.556Z,19.70
2019-04-06T03:14:52.224Z,19.70
2019-04-06T03:19:53.830Z,19.70
2019-04-06T03:24:55.710Z,19.70
2019-04-06T03:29:59.123Z,19.70
2019-04-06T03:35:01.089Z,19.70
2019-04-06T03:40:04.394Z,19.70
2019-04-06T03:45:07.332Z,19.70
2019-04-06T03:50:09.130Z,19.70
2019-04-06T03:55:10.876Z,19.60
2019-04-06T04:00:13.526Z,19.60
2019-04-06T04:05:15.130Z,19.60
2019-04-06T04:10:30.034Z,19.60
2019-04-06T04:15:31.596Z,19.60
2019-04-06T04:20:33.395Z,19.60
2019-04-06T04:25:34.938Z,19.60
2019-04-06T04:30:36.664Z,19.70
2019-04-06T04:35:38.259Z,19.70
2019-04-06T04:40:40.044Z,19.70
2019-04-06T04:45:41.633Z,19.70
2019-04-06T04:50:43.278Z,19.60
2019-04-06T04:55:45.007Z,19.60
2019-04-06T05:00:46.575Z,19.80
2019-04-06T05:05:48.167Z,19.80
2019-04-06T05:10:49.810Z,19.90
2019-04-06T05:16:10.844Z,19.90
2019-04-06T05:21:12.472Z,19.90
2019-04-06T05:26:14.046Z,19.90
2019-04-06T05:31:15.750Z,19.90
2019-04-06T05:36:17.311Z,19.90
2019-04-06T05:41:18.989Z,19.90
2019-04-06T05:46:20.521Z,19.90
2019-04-06T05:51:22.052Z,19.90
2019-04-06T05:56:23.590Z,19.90
2019-04-06T06:01:25.276Z,20.00
2019-04-06T06:06:27.308Z,20.00
2019-04-06T06:11:28.978Z,20.00
2019-04-06T06:16:30.683Z,19.90
2019-04-06T06:21:33.047Z,19.90
2019-04-06T06:26:34.814Z,19.90
2019-04-06T06:31:36.377Z,20.00
2019-04-06T06:36:37.965Z,20.00
2019-04-06T06:41:39.728Z,20.00
2019-04-06T06:46:41.403Z,20.00
2019-04-06T06:51:42.967Z,20.00
2019-04-06T06:56:44.566Z,20.10
2019-04-06T07:01:46.121Z,20.10
2019-04-06T07:06:47.703Z,20.10
2019-04-06T07:11:49.471Z,20.10
2019-04-06T07:16:51.032Z,20.20
2019-04-06T07:21:52.593Z,20.20
2019-04-06T07:26:54.220Z,20.20
2019-04-06T07:31:56.092Z,20.20
2019-04-06T07:36:57.730Z,20.20
2019-04-06T07:41:59.502Z,20.10
2019-04-06T07:47:02.849Z,20.20
2019-04-06T07:52:04.810Z,20.20
2019-04-06T07:57:06.651Z,20.20
2019-04-06T08:02:08.673Z,20.20
2019-04-06T08:07:10.389Z,20.30
2019-04-06T08:12:12.292Z,20.30
2019-04-06T08:17:14.104Z,20.30
2019-04-06T08:22:15.844Z,20.30
2019-04-06T08:27:18.769Z,20.30
2019-04-06T08:32:20.493Z,20.40
2019-04-06T08:37:22.068Z,20.40
2019-04-06T08:42:23.641Z,20.40
2019-04-06T08:47:25.211Z,20.50
2019-04-06T08:52:26.843Z,20.50
2019-04-06T08:57:28.474Z,20.50
2019-04-06T09:02:30.120Z,20.50
2019-04-06T09:07:31.674Z,20.50
2019-04-06T09:12:33.416Z,20.50
2019-04-06T09:17:35.335Z,20.50
2019-04-06T09:22:37.073Z,20.50
2019-04-06T09:27:39.873Z,20.50
2019-04-06T09:32:41.539Z,20.60
2019-04-06T09:37:43.150Z,20.60
2019-04-06T09:42:44.682Z,20.60
2019-04-06T09:47:48.844Z,20.60
2019-04-06T09:53:02.400Z,20.60
2019-04-06T09:58:06.735Z,20.60
2019-04-06T10:03:25.426Z,20.60
2019-04-06T10:08:39.219Z,20.60
2019-04-06T10:13:59.648Z,20.70
2019-04-06T10:19:01.436Z,20.70
2019-04-06T10:24:21.263Z,20.70
2019-04-06T10:29:48.032Z,20.70
2019-04-06T10:34:49.970Z,20.80
2019-04-06T10:39:53.558Z,20.80
2019-04-06T10:44:59.915Z,20.80
2019-04-06T10:50:03.694Z,20.80
2019-04-06T10:55:24.197Z,20.80
2019-04-06T11:00:28.893Z,20.80
2019-04-06T11:05:35.356Z,20.80
2019-04-06T11:10:38.840Z,20.90
2019-04-06T11:15:43.215Z,20.90
2019-04-06T11:20:46.672Z,20.90
2019-04-06T11:25:50.254Z,20.90
2019-04-06T11:30:54.107Z,20.90
2019-04-06T11:35:57.204Z,20.90
2019-04-06T11:41:00.889Z,20.80
2019-04-06T11:46:02.639Z,20.80
2019-04-06T11:51:22.454Z,20.80
2019-04-06T11:56:29.818Z,20.80
2019-04-06T12:01:33.635Z,20.90
2019-04-06T12:06:43.513Z,20.80
2019-04-06T12:12:03.953Z,20.90
2019-04-06T12:17:24.036Z,20.80
2019-04-06T12:22:44.606Z,20.80
2019-04-06T12:27:55.336Z,20.80
2019-04-06T12:33:01.688Z,20.80
2019-04-06T12:38:09.225Z,20.80
2019-04-06T12:43:15.454Z,20.90
2019-04-06T12:48:28.824Z,20.80
2019-04-06T12:53:36.289Z,20.80
2019-04-06T12:58:46.340Z,20.80
2019-04-06T13:04:05.156Z,20.70
2019-04-06T13:09:12.681Z,20.70
2019-04-06T13:14:29.860Z,20.70
2019-04-06T13:19:34.401Z,20.80
2019-04-06T13:24:38.137Z,20.70
2019-04-06T13:29:41.670Z,20.80
2019-04-06T13:35:01.531Z,20.80
2019-04-06T13:40:16.999Z,20.80
2019-04-06T13:45:33.849Z,20.70
2019-04-06T13:50:37.608Z,20.70
2019-04-06T13:55:41.336Z,20.70
2019-04-06T14:01:13.829Z,20.70
2019-04-06T14:06:05.880Z,20.60
2019-04-06T14:11:27.580Z,20.70
2019-04-06T14:16:32.883Z,20.70
2019-04-06T14:21:36.663Z,20.70
2019-04-06T14:26:47.416Z,20.70
2019-04-06T14:31:48.949Z,20.70
2019-04-06T14:36:50.641Z,20.80
2019-04-06T14:42:07.259Z,20.80
2019-04-06T14:47:22.628Z,20.80
2019-04-06T14:52:26.075Z,20.70
2019-04-06T14:57:38.550Z,20.70
2019-04-06T15:02:46.071Z,20.70
2019-04-06T15:07:50.565Z,20.70
2019-04-06T15:12:52.362Z,20.70
2019-04-06T15:17:54.862Z,20.70
2019-04-06T15:23:15.970Z,20.70
2019-04-06T15:28:28.832Z,20.70
2019-04-06T15:33:38.962Z,20.80
2019-04-06T15:38:45.407Z,20.70
2019-04-06T15:44:02.054Z,20.70
2019-04-06T15:49:04.158Z,20.70
2019-04-06T15:54:10.716Z,20.80
2019-04-06T15:59:29.920Z,20.70
2019-04-06T16:04:33.992Z,20.70
2019-04-06T16:09:38.384Z,20.60
2019-04-06T16:14:59.281Z,20.60
2019-04-06T16:20:12.813Z,20.60
2019-04-06T16:25:17.476Z,20.70
2019-04-06T16:30:26.983Z,20.60
2019-04-06T16:35:36.612Z,20.60
2019-04-06T16:40:43.100Z,20.60
2019-04-06T16:45:58.281Z,20.60
2019-04-06T16:51:05.058Z,20.60
2019-04-06T16:56:08.602Z,20.60
2019-04-06T17:01:12.931Z,20.60
2019-04-06T17:06:33.222Z,20.60
2019-04-06T17:11:53.595Z,20.50
2019-04-06T17:17:13.469Z,20.50
2019-04-06T17:22:16.141Z,20.50
2019-04-06T17:27:22.813Z,20.50
2019-04-06T17:32:35.306Z,20.50
2019-04-06T17:37:35.178Z,20.50
2019-04-06T17:42:40.105Z,20.50
2019-04-06T17:47:46.760Z,20.50
2019-04-06T17:52:48.475Z,20.40
2019-04-06T17:58:09.935Z,20.30
2019-04-06T18:03:17.495Z,20.30
2019-04-06T18:08:38.138Z,20.40
2019-04-06T18:13:42.464Z,20.50
2019-04-06T18:18:44.277Z,20.50
2019-04-06T18:23:46.292Z,20.50
2019-04-06T18:28:49.347Z,20.50
2019-04-06T18:33:51.518Z,20.50
2019-04-06T18:38:55.936Z,20.50
2019-04-06T18:43:58.036Z,20.60
2019-04-06T18:49:00.962Z,20.60
2019-04-06T18:54:03.026Z,20.60
2019-04-06T18:59:05.113Z,20.60
2019-04-06T19:04:07.113Z,20.60
2019-04-06T19:09:20.756Z,20.60
2019-04-06T19:14:12.656Z,20.60
2019-04-06T19:19:14.538Z,20.60
2019-04-06T19:24:16.598Z,20.60
2019-04-06T19:29:18.994Z,20.60
2019-04-06T19:34:22.320Z,20.60
2019-04-06T19:39:24.221Z,20.60
2019-04-06T19:44:26.061Z,20.60
2019-04-06T19:49:27.727Z,20.60
2019-04-06T19:54:29.329Z,20.60
2019-04-06T19:59:31.129Z,20.60
2019-04-06T20:04:32.761Z,20.60
2019-04-06T20:09:34.573Z,20.60
2019-04-06T20:14:36.394Z,20.60
2019-04-06T20:19:38.175Z,20.50
2019-04-06T20:24:40.575Z,20.50
2019-04-06T20:29:42.309Z,20.50
2019-04-06T20:34:43.965Z,20.50
2019-04-06T20:39:45.874Z,20.50
2019-04-06T20:44:48.216Z,20.50
2019-04-06T20:49:50.133Z,20.50
2019-04-06T20:54:51.918Z,20.50
2019-04-06T20:59:53.811Z,20.40
2019-04-06T21:04:56.148Z,20.40
2019-04-06T21:09:57.885Z,20.40
2019-04-06T21:14:59.860Z,20.40
2019-04-06T21:20:03.079Z,20.40
2019-04-06T21:25:04.856Z,20.40
2019-04-06T21:30:08.392Z,20.40
2019-04-06T21:35:10.393Z,20.40
2019-04-06T21:40:11.923Z,20.40
2019-04-06T21:45:13.995Z,20.40
2019-04-06T21:50:16.107Z,20.30
2019-04-06T21:55:17.943Z,20.30
2019-04-06T22:00:38.506Z,20.30
2019-04-06T22:05:42.216Z,20.30
2019-04-06T22:10:43.861Z,20.30
2019-04-06T22:15:46.212Z,20.30
2019-04-06T22:20:47.905Z,20.30
2019-04-06T22:25:49.537Z,20.30
2019-04-06T22:30:51.070Z,20.30
2019-04-06T22:35:52.996Z,20.30
2019-04-06T22:40:54.638Z,20.30
2019-04-06T22:45:56.449Z,20.30
2019-04-06T22:50:57.997Z,20.30
2019-04-06T22:55:59.528Z,20.30
2019-04-06T23:01:03.528Z,20.30
2019-04-06T23:06:07.522Z,20.30
2019-04-06T23:11:09.321Z,20.20
2019-04-06T23:16:11.397Z,20.30
2019-04-06T23:21:13.498Z,20.30
2019-04-06T23:26:15.783Z,20.30
2019-04-06T23:31:17.496Z,20.20
2019-04-06T23:36:19.223Z,20.20
2019-04-06T23:41:20.864Z,20.30
2019-04-06T23:46:22.535Z,20.20
2019-04-06T23:51:24.066Z,20.20
2019-04-06T23:56:25.705Z,20.30
